x

Ne Puerto Rico - 170 Nm Nne Of San Juan, P R (41043) Wave Buoy

8:50am - Sat 1st Aug 2015 All times are AST. -4 hours from GMT.

  • Sig Wave height 4.9ft
  • Swell Direction
  • Peak Period 8s
  • Average Period 6s
  • Wind
    16mph, 18mph gusts
  • Sea Temp 83°f
  • Air Temp 83°f
  • Sea Pressure 1018.5mb
  • Ne Puerto Rico  - 170 Nm Nne Of San Juan,  P R
  • Ne Puerto Rico  - 170 Nm Nne Of San Juan,  P R

More Historic Weather Station data

Upgrade to MSW Pro to gain access to the past 30 days of data for over 8000 Wavebouys and Weather Stations around the globe.

Join Pro

Comparision Forecast

View Surf forecast
   
Sat 08/01 8:50am 5ft 8s 6s 16 18 mph 1018.5mb 83f 83f
7:50am 5ft 8s 6s 16 18 mph 1018.2mb 83f 83f
6:50am 5ft 8s 6s 13 16 mph 1018.2mb 83f 82f
5:50am 5ft 8s 6s 16 18 mph 1017.6mb 83f 82f
4:50am 5ft 8s 6s 16 18 mph 1017.2mb 83f 82f
3:50am 5.5ft 8s 6s 16 18 mph 1017.4mb 83f 82f
2:50am 5ft 8s 6s 13 18 mph 1017.7mb 83f 82f
1:50am 5.5ft 8s 6s 16 18 mph 1018.1mb 83f 82f
12:50am 5ft 7s 6s 11 13 mph 1018.7mb 83f 83f
Fri 07/31 11:50pm 6ft 8s 6s 13 18 mph 1019.1mb 83f 83f
10:50pm 6ft 8s 6s 16 20 mph 1019.3mb 83f 83f
9:50pm 6ft 8s 6s 18 22 mph 1018.9mb 83f 83f
8:50pm 5.5ft 7s 6s 18 20 mph 1018.6mb 83f 83f
7:50pm 5.5ft 8s 6s 16 18 mph 1018.2mb 83f 83f
6:50pm 5.5ft 7s 6s 16 18 mph 1017.8mb 83f 83f
5:50pm 5.5ft 8s 6s 16 18 mph 1017.4mb 83f 83f
4:50pm 6ft 7s 6s 16 20 mph 1017.4mb 84f 83f
3:50pm 5.5ft 7s 6s 18 20 mph 1017.4mb 84f 83f
2:50pm 5.5ft 7s 6s 16 20 mph 1017.8mb 84f 83f
1:50pm 6ft 8s 6s 16 20 mph 1018.8mb 83f 83f
12:50pm 6ft 7s 6s 18 20 mph 1019.2mb 83f 83f
11:50am 6ft 7s 6s 18 22 mph 1019.5mb 83f 83f
10:50am 6ft 7s 6s 18 22 mph 1019.8mb 83f 83f
9:50am 6ft 6s 6s 20 22 mph 1019.7mb 83f 83f
8:50am 6ft 8s 6s 20 22 mph 1019.3mb 83f 83f
7:50am 5.5ft 7s 6s 18 22 mph 1019.1mb 83f 83f
6:50am 5.5ft 7s 5s 18 22 mph 1018.5mb 83f 83f
5:50am 6ft 8s 6s 18 20 mph 1018.1mb 83f 83f
4:50am 6ft 8s 6s 18 22 mph 1017.7mb 83f 82f
3:50am 5.5ft 7s 6s 18 20 mph 1017.8mb 83f 83f
2:50am 5.5ft 8s 6s 18 20 mph 1018mb 83f 83f
1:50am 5ft 8s 6s 18 22 mph 1018.1mb 83f 83f
12:50am 5.5ft 8s 6s 18 20 mph 1018.8mb 83f 83f
Thu 07/30 11:50pm 5ft 7s 6s 20 25 mph 1019.3mb 83f 83f
10:50pm 5ft 7s 5s 16 20 mph 1019.5mb 83f 83f
9:50pm 5.5ft 10s 6s 18 20 mph 1019.3mb 83f 83f
8:50pm 5ft 6s 6s 18 22 mph 1018.8mb 83f 83f
7:50pm 6ft 7s 6s 18 20 mph 1018.2mb 83f 83f
6:50pm 5ft 7s 5s 18 20 mph 1017.8mb 84f 83f
5:50pm 5ft 9s 5s 20 22 mph 1017.4mb 84f 83f
4:50pm 5ft 7s 5s 18 22 mph 1017.3mb 84f 83f
3:50pm 5ft 8s 5s 16 20 mph 1017.5mb 84f 83f
2:50pm 5ft 6s 5s 18 20 mph 1018mb 84f 83f
1:50pm 5ft 9s 6s 16 20 mph 1018.8mb 84f 83f
12:50pm 5ft 10s 5s 16 18 mph 1019.3mb 84f 83f
11:50am 5ft 10s 5s 16 18 mph 1019.5mb 83f 83f
10:50am 5ft 9s 5s 18 20 mph 1019.6mb 83f 83f
9:50am 5ft 10s 6s 16 20 mph 1019.5mb 83f 83f
8:50am 5ft 8s 6s 16 18 mph 1019.3mb 83f 83f
7:50am 5ft 8s 5s 18 20 mph 1019mb 83f 83f
6:50am 5ft 11s 6s 16 20 mph 1018.7mb 83f 83f
5:50am 5ft 9s 6s 18 20 mph 1018.1mb 83f 82f
4:50am 4.5ft 9s 6s 18 20 mph 1017.8mb 83f 82f
3:50am 4.5ft 10s 6s 16 20 mph 1017.9mb 83f 82f
2:50am 5ft 8s 6s 16 20 mph 1017.8mb 83f 82f
1:50am 4.5ft 7s 5s 13 18 mph 1018mb 83f 82f
12:50am 4.5ft 7s 6s 13 18 mph 1018.4mb 83f 82f
Wed 07/29 11:50pm 4.5ft 7s 5s 16 18 mph 1018.7mb 83f 82f
10:50pm 4.5ft 7s 5s 13 16 mph 1019mb 83f 82f
9:50pm 4.5ft 8s 6s 16 18 mph 1018.6mb 83f 83f
8:50pm 4ft 7s 6s 16 18 mph 1018.2mb 83f 82f
7:50pm 4.5ft 7s 6s 13 16 mph 1017.8mb 83f 83f
6:50pm 4ft 7s 6s 13 16 mph 1017.2mb 84f 82f
5:50pm 4ft 8s 6s 11 13 mph 1017.1mb 84f 83f
4:50pm 4.5ft 8s 6s 9 11 mph 1017.1mb 84f 83f
3:50pm 4ft 8s 5s 11
mph
1017.3mb 84f 83f
2:50pm 4ft 8s 5s 16 18 mph 1017.5mb 84f 82f
1:50pm 4.5ft 8s 6s 11 13 mph 1018mb 84f 83f
12:50pm 4ft 8s 5s 11 13 mph 1018.2mb 83f 83f
11:50am 4ft 8s 5s 13 16 mph 1018.5mb 83f 82f
10:50am 4.5ft 8s 5s 18 25 mph 1018.5mb 83f 81f
9:50am 4.5ft 7s 6s 13 16 mph 1018.4mb 83f 82f
8:50am 4ft 8s 6s 11 13 mph 1018.2mb 83f 82f
7:50am 4.5ft 8s 6s 13 16 mph 1017.9mb 83f 82f
6:50am 4ft 8s 6s 13 16 mph 1017.4mb 83f 82f
5:50am 4ft 7s 5s 13 16 mph 1017mb 83f 82f
4:50am 4.5ft 8s 6s 13 16 mph 1016.9mb 83f 82f
3:50am 4.5ft 8s 6s 11 16 mph 1017.1mb 83f 82f
2:50am 4.5ft 8s 6s 11 16 mph 1017.1mb 83f 82f
1:50am 4.5ft 8s 5s 11 13 mph 1017.4mb 83f 82f
12:50am 4.5ft 8s 5s 11 13 mph 1018mb 83f 82f
Tue 07/28 11:50pm 4.5ft 8s 5s 13 18 mph 1018.4mb 83f 82f
10:50pm 4.5ft 8s 5s 13 16 mph 1018.7mb 83f 83f
9:50pm 4.5ft 7s 6s 13 16 mph 1018.5mb 83f 83f
8:50pm 4.5ft 8s 6s 13 18 mph 1017.9mb 83f 83f
7:50pm 4.5ft 8s 6s 13 16 mph 1017.7mb 83f 83f
6:50pm 4.5ft 8s 6s 13 16 mph 1017.3mb 84f 83f
5:50pm 4.5ft 7s 6s 13 16 mph 1016.9mb 84f 83f
4:50pm 5ft 8s 6s 11 13 mph 1016.7mb 84f 83f
3:50pm 4.5ft 8s 5s 13 16 mph 1017mb 84f 83f
2:50pm 4.5ft 8s 6s 13 16 mph 1017.4mb 84f 83f